Aeroporto :
LOGIN :

Iscrizione | Disclaimer

   EN    FR    IT 

 










Sommario :    VFR   VFR Marginale   IFR   IFR Intensivo   IFR Molto Intensivo
Visibilità : 
Base nubi : 
>= 8 km
>= 3000ft
5 / 8 km
1000 / 3000 ft
1500m / 5 km
500 / 1000 ft
800 / 1500m
200 / 500 ft
< 800m
< 200 ft
Simboli :   Temporali  Nebbia  Neve Forte  Precipitazioni Forti  Vento > 20 kt
SIGMETs :   Varie  Temporali  Ghiacco  Turbolenza  Onda orograficha  Ceneri Vulcaniche






- Altitudine del aeroporto : 600 ft
- Codice IATA : VIE


LOWW - Vienna Schwechat

ULTIMO METAR :
  • 161120Z 32014KT CAVOK 31/17 Q1013 NOSIG

METARs OBSOLETI :
  • 161050Z 31016KT 270V350 CAVOK 31/16 Q1013 NOSIG
  • 161020Z 31015KT 9999 FEW050 31/17 Q1013 NOSIG
  • 160950Z 30015KT 260V330 9999 FEW050 30/17 Q1013 NOSIG
  • 160920Z 30016KT 260V320 9999 FEW050 30/17 Q1013 NOSIG
  • 160850Z 28016KT 250V320 9999 FEW045 29/17 Q1013 NOSIG
  • 160820Z 29016KT 260V320 9999 FEW045 29/17 Q1013 NOSIG
  • 160750Z 28015KT 9999 FEW045 28/17 Q1013 NOSIG
  • 160720Z 27013KT 9999 FEW040 28/17 Q1013 NOSIG
  • 160650Z 29013KT 250V310 9999 FEW040 27/17 Q1013 NOSIG

TAF TAF LOWW
Valido dal 16 a 12 ore il 17 a 18 ore UTC


161115Z 1612/1718 29015KT CAVOK TX31/1614Z TN21/1704Z
TEMPO 1612/1704 31015G25KT
TEMPO 1618/1705 FEW060CB
PROB40
TEMPO 1700/1704 SHRA
PROB30
TEMPO 1700/1703 TSRA



MetMap, La meteo Aeronautica in un colpo d'occhio ! - Copyright ORBIFLY Dicembre 2007 - Disclaimer

ORBIFLY MET'MAP TEAM :

Programmazione e sviluppo : Alexandra Zaïnal
Concezione : Baudouin d'Aumeries
Supporto tecnico e logistico : Manuel Goepfert
Aiuto : Marc-Olivier Méhu
Aiuto per la traduzione : Arnaldo La Scala




FONTI E CREDITI :

   NOAA